Time;durP1;ratioP1;P1;durP2;ratioP2;P2;SDS_P1;SDS_P2;PMS_P1;PMS_P2;Temp;Humidity;BMP_temperature;BMP_pressure;BME280_temperature;BME280_humidity;BME280_pressure;Samples;Min_cycle;Max_cycle;Signal;HPM_P1;HPM_P2
2021/10/13 00:00:50;;;;;;;4.03;2.72;;;;;;;;;;5112700;28;20165;-64
2021/10/13 00:03:15;;;;;;;2.72;1.95;;;;;;;;;;5111368;28;20110;-63
2021/10/13 00:05:41;;;;;;;2.88;1.88;;;;;;;;;;5112280;28;20039;-63
2021/10/13 00:08:07;;;;;;;2.17;1.55;;;;;;;;;;5108737;28;20038;-64
2021/10/13 00:10:32;;;;;;;2.42;1.85;;;;;;;;;;5111702;28;20035;-64
2021/10/13 00:12:58;;;;;;;2.60;1.90;;;;;;;;;;5108879;28;20448;-63
2021/10/13 00:15:23;;;;;;;2.55;1.58;;;;;;;;;;5107476;28;20115;-64
2021/10/13 00:17:48;;;;;;;2.40;1.80;;;;;;;;;;5111140;28;20462;-64
2021/10/13 00:20:14;;;;;;;3.17;2.13;;;;;;;;;;5105350;28;20032;-63
2021/10/13 00:22:39;;;;;;;2.70;1.88;;;;;;;;;;5110419;28;20024;-63
2021/10/13 00:25:05;;;;;;;2.35;1.80;;;;;;;;;;5095560;28;20051;-63
2021/10/13 00:27:31;;;;;;;2.50;1.80;;;;;;;;;;5094032;28;20039;-63
2021/10/13 00:29:56;;;;;;;2.42;1.70;;;;;;;;;;5110934;28;20411;-64
2021/10/13 00:32:22;;;;;;;2.47;1.63;;;;;;;;;;5109014;28;20050;-64
2021/10/13 00:34:47;;;;;;;3.65;2.15;;;;;;;;;;5088964;28;20088;-63
2021/10/13 00:37:13;;;;;;;2.15;1.63;;;;;;;;;;5109607;28;20031;-63
2021/10/13 00:39:38;;;;;;;2.60;1.80;;;;;;;;;;5108031;28;20028;-63
2021/10/13 00:42:04;;;;;;;2.50;1.92;;;;;;;;;;5095217;28;20088;-63
2021/10/13 00:44:29;;;;;;;3.10;2.17;;;;;;;;;;5106265;28;20046;-63
2021/10/13 00:46:54;;;;;;;3.50;1.77;;;;;;;;;;5102191;28;20376;-63
2021/10/13 00:49:20;;;;;;;10.95;2.30;;;;;;;;;;5106044;28;20020;-63
2021/10/13 00:51:45;;;;;;;1.90;1.38;;;;;;;;;;5107789;28;20161;-63
2021/10/13 00:54:11;;;;;;;2.20;1.70;;;;;;;;;;5106572;27;20027;-63
2021/10/13 00:56:36;;;;;;;1.90;1.35;;;;;;;;;;5108215;27;20028;-63
2021/10/13 00:59:02;;;;;;;3.17;1.85;;;;;;;;;;5111828;27;20023;-63
2021/10/13 01:01:40;;;;;;;2.45;1.80;;;;;;;;;;5110058;27;20066;-63
2021/10/13 01:04:26;;;;;;;5.32;1.92;;;;;;;;;;5113495;27;20027;-63
2021/10/13 01:07:00;;;;;;;2.20;1.67;;;;;;;;;;5112772;27;20038;-63
2021/10/13 01:09:33;;;;;;;2.10;1.52;;;;;;;;;;5109298;27;20034;-64
2021/10/13 01:12:32;;;;;;;2.13;1.58;;;;;;;;;;5104400;27;20468;-63
2021/10/13 01:15:22;;;;;;;2.65;1.95;;;;;;;;;;5112436;27;20173;-63
2021/10/13 01:18:13;;;;;;;1.90;1.30;;;;;;;;;;5093223;28;20035;-63
2021/10/13 01:20:39;;;;;;;2.30;1.67;;;;;;;;;;5106624;27;20034;-63
2021/10/13 01:23:24;;;;;;;2.13;1.40;;;;;;;;;;5109553;27;20035;-64
2021/10/13 01:26:02;;;;;;;2.15;1.67;;;;;;;;;;5113360;27;20046;-63
2021/10/13 01:28:34;;;;;;;2.20;1.60;;;;;;;;;;5112047;27;20501;-63
2021/10/13 01:31:03;;;;;;;2.10;1.52;;;;;;;;;;5106912;27;20504;-63
2021/10/13 01:33:35;;;;;;;2.97;1.90;;;;;;;;;;5109966;27;20041;-63
2021/10/13 01:36:06;;;;;;;2.45;1.90;;;;;;;;;;5109401;27;20346;-63
2021/10/13 01:38:38;;;;;;;3.00;2.05;;;;;;;;;;5108754;27;20782;-63
2021/10/13 01:41:04;;;;;;;2.97;1.83;;;;;;;;;;5110087;27;20463;-63
2021/10/13 01:43:34;;;;;;;2.45;1.83;;;;;;;;;;5108865;27;20486;-63
2021/10/13 01:46:03;;;;;;;2.00;1.50;;;;;;;;;;5115121;27;20042;-63
2021/10/13 01:48:32;;;;;;;1.80;1.20;;;;;;;;;;5111642;27;20484;-63
2021/10/13 01:50:57;;;;;;;2.20;1.58;;;;;;;;;;5101344;27;20077;-65
2021/10/13 01:53:24;;;;;;;2.42;1.70;;;;;;;;;;5111643;27;20035;-65
2021/10/13 01:55:51;;;;;;;2.55;1.85;;;;;;;;;;5111438;27;20425;-64
2021/10/13 01:58:19;;;;;;;2.47;1.75;;;;;;;;;;5114034;27;20480;-64
2021/10/13 02:00:48;;;;;;;1.90;1.35;;;;;;;;;;5076306;27;20114;-64
2021/10/13 02:03:14;;;;;;;4.03;2.05;;;;;;;;;;5115713;27;20108;-64
2021/10/13 02:05:40;;;;;;;2.10;1.52;;;;;;;;;;5111153;27;20020;-64
2021/10/13 02:08:07;;;;;;;2.55;1.88;;;;;;;;;;5107808;27;20031;-65
2021/10/13 02:10:35;;;;;;;2.45;1.77;;;;;;;;;;5113447;27;20026;-65
2021/10/13 02:13:01;;;;;;;2.92;2.10;;;;;;;;;;5113745;27;20050;-64
2021/10/13 02:15:27;;;;;;;2.25;1.65;;;;;;;;;;5108379;27;20035;-64
2021/10/13 02:17:55;;;;;;;2.15;1.48;;;;;;;;;;5116836;27;20028;-64
2021/10/13 02:20:22;;;;;;;2.50;1.80;;;;;;;;;;5109197;27;20024;-64
2021/10/13 02:22:55;;;;;;;3.17;1.73;;;;;;;;;;5111219;27;20039;-64
2021/10/13 02:25:21;;;;;;;2.10;1.52;;;;;;;;;;5095736;27;20031;-64
2021/10/13 02:27:59;;;;;;;2.08;1.45;;;;;;;;;;5104555;27;20023;-64
2021/10/13 02:30:24;;;;;;;2.70;1.90;;;;;;;;;;5108669;27;20032;-64
2021/10/13 02:32:50;;;;;;;2.58;1.83;;;;;;;;;;5108345;27;20145;-65
2021/10/13 02:35:16;;;;;;;2.75;1.60;;;;;;;;;;5107096;27;20081;-64
2021/10/13 02:37:41;;;;;;;2.10;1.65;;;;;;;;;;5112272;27;20116;-64
2021/10/13 02:40:07;;;;;;;2.58;1.95;;;;;;;;;;5107771;27;20036;-64
2021/10/13 02:42:34;;;;;;;2.25;1.60;;;;;;;;;;5107645;27;20035;-64
2021/10/13 02:45:00;;;;;;;2.67;2.03;;;;;;;;;;5106265;27;20027;-64
2021/10/13 02:47:35;;;;;;;2.55;1.88;;;;;;;;;;5110430;27;20362;-64
2021/10/13 02:50:12;;;;;;;2.47;1.88;;;;;;;;;;5110467;27;20024;-64
2021/10/13 02:52:55;;;;;;;2.40;1.75;;;;;;;;;;5108241;27;20042;-64
2021/10/13 02:55:25;;;;;;;2.40;1.75;;;;;;;;;;5109438;27;20042;-65
2021/10/13 02:58:22;;;;;;;15.63;1.83;;;;;;;;;;5110920;27;20107;-65
2021/10/13 03:00:50;;;;;;;2.40;1.70;;;;;;;;;;5087163;27;20051;-65
2021/10/13 03:03:19;;;;;;;2.88;2.00;;;;;;;;;;5107923;27;20059;-64
2021/10/13 03:05:48;;;;;;;2.53;1.80;;;;;;;;;;5111546;27;20057;-64
2021/10/13 03:08:15;;;;;;;1.90;1.38;;;;;;;;;;5110472;27;20504;-64
2021/10/13 03:10:45;;;;;;;2.20;1.58;;;;;;;;;;5108519;27;20063;-65
2021/10/13 03:13:11;;;;;;;2.75;1.83;;;;;;;;;;5108978;27;20030;-64
2021/10/13 03:15:41;;;;;;;4.55;2.25;;;;;;;;;;5113227;27;20049;-65
2021/10/13 03:18:07;;;;;;;2.10;1.60;;;;;;;;;;5104054;27;20093;-64
2021/10/13 03:20:33;;;;;;;4.97;1.90;;;;;;;;;;5109864;27;20043;-65
2021/10/13 03:23:00;;;;;;;2.60;1.98;;;;;;;;;;5078320;28;20469;-64
2021/10/13 03:25:30;;;;;;;3.75;2.40;;;;;;;;;;5108050;27;20115;-64
2021/10/13 03:27:57;;;;;;;2.65;1.90;;;;;;;;;;5109232;27;20568;-65
2021/10/13 03:30:23;;;;;;;17.00;2.38;;;;;;;;;;5106835;27;20094;-65
2021/10/13 03:32:49;;;;;;;2.33;1.65;;;;;;;;;;5110618;27;20574;-65
2021/10/13 03:35:32;;;;;;;2.55;1.90;;;;;;;;;;5109324;27;20465;-66
2021/10/13 03:38:00;;;;;;;2.65;1.67;;;;;;;;;;5110426;27;20405;-65
2021/10/13 03:40:27;;;;;;;2.15;1.50;;;;;;;;;;5111720;27;20035;-64
2021/10/13 03:42:53;;;;;;;2.85;2.05;;;;;;;;;;5110688;27;20122;-64
2021/10/13 03:45:20;;;;;;;2.17;1.67;;;;;;;;;;5110084;27;20427;-64
2021/10/13 03:47:47;;;;;;;2.50;2.03;;;;;;;;;;5111723;27;20449;-65
2021/10/13 03:50:15;;;;;;;2.40;1.80;;;;;;;;;;5108332;27;20035;-65
2021/10/13 03:52:41;;;;;;;5.25;2.00;;;;;;;;;;5109113;28;20064;-65
2021/10/13 03:55:08;;;;;;;2.22;1.75;;;;;;;;;;5110375;28;20035;-64
2021/10/13 03:57:34;;;;;;;2.85;2.03;;;;;;;;;;5112437;27;20042;-64
2021/10/13 04:00:00;;;;;;;2.80;2.10;;;;;;;;;;5093658;28;20367;-65
2021/10/13 04:02:25;;;;;;;2.63;2.00;;;;;;;;;;5107242;28;20331;-65
2021/10/13 04:04:51;;;;;;;3.10;1.88;;;;;;;;;;5113907;28;20050;-65
2021/10/13 04:07:16;;;;;;;2.65;2.10;;;;;;;;;;5110718;28;20056;-65
2021/10/13 04:09:42;;;;;;;2.50;1.90;;;;;;;;;;5111337;28;20027;-66
2021/10/13 04:12:07;;;;;;;4.05;2.50;;;;;;;;;;5096862;28;20131;-67
2021/10/13 04:14:32;;;;;;;3.05;2.08;;;;;;;;;;5107537;28;20032;-67
2021/10/13 04:16:58;;;;;;;3.15;2.25;;;;;;;;;;5104891;28;20114;-67
2021/10/13 04:19:24;;;;;;;3.80;2.53;;;;;;;;;;5111796;28;20031;-67
2021/10/13 04:21:50;;;;;;;2.50;2.00;;;;;;;;;;5110572;28;20123;-66
2021/10/13 04:24:15;;;;;;;3.47;2.40;;;;;;;;;;5103599;28;20101;-66
2021/10/13 04:26:41;;;;;;;3.50;2.00;;;;;;;;;;5104472;28;20465;-65
2021/10/13 04:29:06;;;;;;;4.20;2.22;;;;;;;;;;5113200;27;20031;-65
2021/10/13 04:31:32;;;;;;;3.63;2.63;;;;;;;;;;5112417;27;20510;-65
2021/10/13 04:33:57;;;;;;;4.47;2.88;;;;;;;;;;5112419;27;20038;-65
2021/10/13 04:36:22;;;;;;;2.75;2.00;;;;;;;;;;5108745;27;20504;-65
2021/10/13 04:38:48;;;;;;;2.75;2.33;;;;;;;;;;5109353;27;20119;-66
2021/10/13 04:41:13;;;;;;;2.58;2.05;;;;;;;;;;5114353;27;20117;-66
2021/10/13 04:43:38;;;;;;;3.33;2.50;;;;;;;;;;5111952;27;20023;-66
2021/10/13 04:46:04;;;;;;;5.47;2.00;;;;;;;;;;5112430;27;20050;-66
2021/10/13 04:48:29;;;;;;;2.97;2.22;;;;;;;;;;5114125;27;20028;-67
2021/10/13 04:50:55;;;;;;;2.65;1.92;;;;;;;;;;5111164;27;20099;-68
2021/10/13 04:53:20;;;;;;;2.90;2.22;;;;;;;;;;5111712;27;20054;-69
2021/10/13 04:55:46;;;;;;;2.97;2.17;;;;;;;;;;5110905;27;20038;-68
2021/10/13 04:58:11;;;;;;;18.00;2.28;;;;;;;;;;5111136;27;20085;-68
2021/10/13 05:00:36;;;;;;;3.25;2.15;;;;;;;;;;5110784;27;20047;-68
2021/10/13 05:03:02;;;;;;;4.03;2.35;;;;;;;;;;5109357;27;20452;-68
2021/10/13 05:05:27;;;;;;;2.80;2.17;;;;;;;;;;5108517;27;20036;-67
2021/10/13 05:07:53;;;;;;;2.80;1.83;;;;;;;;;;5100845;27;20051;-67
2021/10/13 05:10:18;;;;;;;3.42;2.10;;;;;;;;;;5107364;27;20078;-67
2021/10/13 05:12:43;;;;;;;3.38;2.75;;;;;;;;;;5106914;27;20024;-66
2021/10/13 05:15:09;;;;;;;2.92;2.25;;;;;;;;;;5110709;27;20036;-66
2021/10/13 05:17:34;;;;;;;2.92;2.25;;;;;;;;;;5108905;27;20097;-66
2021/10/13 05:20:00;;;;;;;2.88;2.30;;;;;;;;;;5106628;27;20055;-66
2021/10/13 05:22:25;;;;;;;3.53;2.47;;;;;;;;;;5109251;27;20111;-66
2021/10/13 05:24:51;;;;;;;5.38;2.95;;;;;;;;;;5110202;27;20031;-66
2021/10/13 05:27:16;;;;;;;3.03;2.28;;;;;;;;;;5107388;27;20028;-66
2021/10/13 05:29:41;;;;;;;3.47;2.53;;;;;;;;;;5110939;27;20039;-68
2021/10/13 05:32:07;;;;;;;3.13;2.05;;;;;;;;;;5111802;27;20042;-67
2021/10/13 05:34:32;;;;;;;3.10;2.13;;;;;;;;;;5111268;27;20591;-68
2021/10/13 05:36:58;;;;;;;4.35;2.50;;;;;;;;;;5113487;27;20459;-68
2021/10/13 05:39:23;;;;;;;2.50;1.90;;;;;;;;;;5108018;27;20598;-68
2021/10/13 05:41:49;;;;;;;3.33;2.55;;;;;;;;;;5114456;27;20061;-67
2021/10/13 05:44:14;;;;;;;3.22;2.13;;;;;;;;;;5116486;27;20100;-67
2021/10/13 05:46:40;;;;;;;3.45;2.55;;;;;;;;;;5115205;27;20031;-67
2021/10/13 05:49:05;;;;;;;2.65;2.05;;;;;;;;;;5113242;27;20062;-67
2021/10/13 05:51:30;;;;;;;2.42;1.95;;;;;;;;;;5110553;27;20429;-66
2021/10/13 05:53:56;;;;;;;2.80;2.22;;;;;;;;;;5110991;27;20085;-66
2021/10/13 05:56:21;;;;;;;2.70;2.10;;;;;;;;;;5088839;27;20051;-67
2021/10/13 05:58:51;;;;;;;2.40;1.92;;;;;;;;;;5114136;27;20035;-68
2021/10/13 06:01:19;;;;;;;3.20;2.30;;;;;;;;;;5093705;28;20027;-66
2021/10/13 06:03:44;;;;;;;3.42;2.53;;;;;;;;;;5109396;27;20050;-65
2021/10/13 06:06:09;;;;;;;2.70;2.20;;;;;;;;;;5111281;27;20027;-65
2021/10/13 06:08:35;;;;;;;2.40;1.88;;;;;;;;;;5112097;27;20027;-64
2021/10/13 06:11:00;;;;;;;4.10;2.72;;;;;;;;;;5109140;27;20028;-65
2021/10/13 06:13:26;;;;;;;3.80;3.03;;;;;;;;;;5108229;27;20088;-65
2021/10/13 06:15:53;;;;;;;3.45;2.53;;;;;;;;;;5108214;27;20120;-66
2021/10/13 06:18:18;;;;;;;3.63;2.58;;;;;;;;;;5109259;27;20032;-65
2021/10/13 06:20:44;;;;;;;3.10;2.47;;;;;;;;;;5110127;27;20057;-64
2021/10/13 06:23:09;;;;;;;6.20;2.17;;;;;;;;;;5094585;27;20027;-65
2021/10/13 06:25:35;;;;;;;2.95;2.17;;;;;;;;;;5112122;27;20081;-65
2021/10/13 06:28:01;;;;;;;3.45;2.40;;;;;;;;;;5111540;27;20031;-64
2021/10/13 06:30:28;;;;;;;4.68;3.13;;;;;;;;;;5110109;27;20123;-64
2021/10/13 06:32:54;;;;;;;3.85;2.78;;;;;;;;;;5105513;27;20212;-64
2021/10/13 06:35:19;;;;;;;2.97;2.30;;;;;;;;;;5108917;27;20122;-65
2021/10/13 06:37:46;;;;;;;4.47;2.58;;;;;;;;;;5108738;27;20020;-64
2021/10/13 06:40:13;;;;;;;3.15;2.42;;;;;;;;;;5108689;27;20123;-64
2021/10/13 06:42:41;;;;;;;3.17;2.33;;;;;;;;;;5108470;27;20035;-64
2021/10/13 06:45:08;;;;;;;4.57;3.28;;;;;;;;;;5114376;27;20464;-64
2021/10/13 06:47:33;;;;;;;3.17;2.53;;;;;;;;;;5108243;27;20461;-64
2021/10/13 06:50:00;;;;;;;2.72;2.08;;;;;;;;;;5093411;27;20039;-64
2021/10/13 06:52:25;;;;;;;4.43;2.58;;;;;;;;;;5111831;27;20035;-64
2021/10/13 06:54:50;;;;;;;3.47;3.00;;;;;;;;;;5112181;27;20289;-64
2021/10/13 06:57:16;;;;;;;3.20;2.42;;;;;;;;;;5112567;27;20467;-64
2021/10/13 06:59:42;;;;;;;3.60;2.72;;;;;;;;;;5108761;27;20031;-64
2021/10/13 07:02:07;;;;;;;4.90;3.03;;;;;;;;;;5093288;27;20586;-64
2021/10/13 07:04:34;;;;;;;3.22;2.50;;;;;;;;;;5106200;27;20039;-64
2021/10/13 07:06:59;;;;;;;4.20;2.80;;;;;;;;;;5110648;27;20031;-64
2021/10/13 07:09:25;;;;;;;4.03;3.22;;;;;;;;;;5108767;27;20097;-64
2021/10/13 07:11:50;;;;;;;3.95;2.97;;;;;;;;;;5108387;27;20040;-64
2021/10/13 07:14:17;;;;;;;4.65;3.97;;;;;;;;;;5104910;27;20039;-64
2021/10/13 07:16:43;;;;;;;6.50;3.15;;;;;;;;;;5093386;27;20031;-64
2021/10/13 07:19:08;;;;;;;3.30;2.90;;;;;;;;;;5106899;27;20039;-64
2021/10/13 07:21:34;;;;;;;5.18;3.28;;;;;;;;;;5110951;27;20050;-63
2021/10/13 07:23:59;;;;;;;3.78;3.00;;;;;;;;;;5112256;27;20499;-64
2021/10/13 07:26:24;;;;;;;4.43;3.75;;;;;;;;;;5110086;27;20038;-64
2021/10/13 07:28:50;;;;;;;4.68;3.30;;;;;;;;;;5108116;27;20186;-64
2021/10/13 07:31:15;;;;;;;4.47;3.15;;;;;;;;;;5108838;27;20153;-64
2021/10/13 07:33:41;;;;;;;5.65;3.95;;;;;;;;;;5115276;27;20031;-64
2021/10/13 07:36:06;;;;;;;3.55;3.15;;;;;;;;;;5113533;27;20042;-64
2021/10/13 07:38:32;;;;;;;3.78;2.88;;;;;;;;;;5114910;27;20043;-64
2021/10/13 07:40:57;;;;;;;4.10;3.42;;;;;;;;;;5108349;27;20065;-64
2021/10/13 07:43:23;;;;;;;3.72;2.90;;;;;;;;;;5108661;27;20035;-64
2021/10/13 07:45:49;;;;;;;3.97;3.33;;;;;;;;;;5108525;27;20043;-64
2021/10/13 07:48:14;;;;;;;6.53;3.50;;;;;;;;;;5107895;27;20027;-64
2021/10/13 07:50:40;;;;;;;6.47;4.22;;;;;;;;;;5106087;27;20498;-63
2021/10/13 07:53:05;;;;;;;8.00;4.25;;;;;;;;;;5107177;28;20065;-64
2021/10/13 07:55:32;;;;;;;4.47;2.95;;;;;;;;;;5104567;27;20110;-64
2021/10/13 07:57:57;;;;;;;5.80;4.50;;;;;;;;;;5105742;28;20046;-65
2021/10/13 08:00:23;;;;;;;3.63;3.25;;;;;;;;;;5106323;28;20032;-64
2021/10/13 08:02:49;;;;;;;4.68;3.63;;;;;;;;;;5112040;28;20027;-64
2021/10/13 08:05:18;;;;;;;6.00;4.43;;;;;;;;;;5106238;28;20031;-64
2021/10/13 08:07:45;;;;;;;8.40;5.38;;;;;;;;;;5088906;28;20024;-63
2021/10/13 08:10:11;;;;;;;7.93;6.05;;;;;;;;;;5109065;28;20435;-64
2021/10/13 08:12:37;;;;;;;8.07;4.57;;;;;;;;;;5110260;28;20164;-64
2021/10/13 08:15:03;;;;;;;8.88;4.82;;;;;;;;;;5110001;28;20115;-64
2021/10/13 08:17:29;;;;;;;9.93;4.63;;;;;;;;;;5110551;28;20023;-64
2021/10/13 08:19:55;;;;;;;6.57;4.40;;;;;;;;;;5112849;28;20055;-64
2021/10/13 08:22:22;;;;;;;4.15;3.58;;;;;;;;;;5111658;28;20111;-64
2021/10/13 08:24:48;;;;;;;6.05;4.45;;;;;;;;;;5105693;28;20023;-64
2021/10/13 08:27:13;;;;;;;5.28;3.72;;;;;;;;;;5109923;28;20042;-63
2021/10/13 08:29:39;;;;;;;7.53;4.45;;;;;;;;;;5094129;28;20031;-63
2021/10/13 08:32:05;;;;;;;5.22;4.03;;;;;;;;;;5108159;28;20106;-63
2021/10/13 08:34:31;;;;;;;4.78;3.80;;;;;;;;;;5107166;28;20054;-63
2021/10/13 08:36:56;;;;;;;7.30;4.70;;;;;;;;;;5110317;28;20065;-63
2021/10/13 08:39:21;;;;;;;6.78;4.25;;;;;;;;;;5109564;28;20088;-63
2021/10/13 08:41:47;;;;;;;5.40;4.32;;;;;;;;;;5107022;28;20120;-66
2021/10/13 08:44:13;;;;;;;5.93;4.43;;;;;;;;;;5106760;28;20035;-66
2021/10/13 08:46:39;;;;;;;14.05;7.72;;;;;;;;;;5098345;28;20031;-66
2021/10/13 08:49:05;;;;;;;9.10;3.92;;;;;;;;;;5093646;28;20031;-66
2021/10/13 08:51:38;;;;;;;6.50;4.45;;;;;;;;;;5108377;28;20043;-66
2021/10/13 08:54:04;;;;;;;5.28;4.22;;;;;;;;;;5107551;28;20444;-65
2021/10/13 08:56:30;;;;;;;7.75;5.20;;;;;;;;;;5106073;28;20115;-65
2021/10/13 08:58:56;;;;;;;6.47;4.97;;;;;;;;;;5103728;28;20115;-66
2021/10/13 09:01:21;;;;;;;4.72;3.47;;;;;;;;;;5106836;28;20027;-66
2021/10/13 09:03:55;;;;;;;5.95;4.45;;;;;;;;;;5107977;28;20036;-66
2021/10/13 09:06:26;;;;;;;6.85;5.07;;;;;;;;;;5108254;28;20396;-66
2021/10/13 09:08:55;;;;;;;6.22;4.38;;;;;;;;;;5106219;28;20039;-66
2021/10/13 09:11:29;;;;;;;5.80;5.18;;;;;;;;;;5104701;28;20119;-65
2021/10/13 09:14:14;;;;;;;5.30;4.63;;;;;;;;;;5106991;27;20048;-65
2021/10/13 09:17:00;;;;;;;5.85;3.83;;;;;;;;;;5110710;27;20105;-66
2021/10/13 09:19:35;;;;;;;6.47;4.88;;;;;;;;;;5109155;27;20035;-66
2021/10/13 09:22:04;;;;;;;6.00;4.03;;;;;;;;;;5114356;27;20122;-65
2021/10/13 09:24:31;;;;;;;5.95;3.95;;;;;;;;;;5110360;27;20034;-66
2021/10/13 09:27:15;;;;;;;4.50;3.58;;;;;;;;;;5110585;27;20059;-66
2021/10/13 09:29:42;;;;;;;6.40;3.58;;;;;;;;;;5111725;27;20039;-66
2021/10/13 09:32:08;;;;;;;6.68;4.55;;;;;;;;;;5110361;27;20123;-66
2021/10/13 09:34:33;;;;;;;4.07;3.00;;;;;;;;;;5111225;27;20107;-66
2021/10/13 09:36:59;;;;;;;5.07;4.00;;;;;;;;;;5115696;27;20035;-65
2021/10/13 09:39:30;;;;;;;8.55;4.35;;;;;;;;;;5115305;27;20114;-65
2021/10/13 09:42:01;;;;;;;4.32;3.63;;;;;;;;;;5111750;27;20058;-65
2021/10/13 09:44:54;;;;;;;7.70;4.40;;;;;;;;;;5108940;27;20035;-65
2021/10/13 09:47:27;;;;;;;6.20;5.60;;;;;;;;;;5108410;27;20071;-65
2021/10/13 09:49:52;;;;;;;4.10;3.10;;;;;;;;;;5109603;27;20388;-65
2021/10/13 09:52:26;;;;;;;4.50;2.85;;;;;;;;;;5107514;27;20106;-65
2021/10/13 09:54:58;;;;;;;3.03;2.50;;;;;;;;;;5087527;28;20516;-65
2021/10/13 09:57:26;;;;;;;5.03;3.65;;;;;;;;;;5103877;27;20062;-65
2021/10/13 09:59:58;;;;;;;4.25;3.20;;;;;;;;;;5105694;27;20050;-65
2021/10/13 10:02:33;;;;;;;3.95;2.92;;;;;;;;;;5093182;28;20442;-65
2021/10/13 10:05:06;;;;;;;5.20;3.53;;;;;;;;;;5085695;28;20039;-64
2021/10/13 10:07:32;;;;;;;3.60;2.85;;;;;;;;;;5096524;28;20042;-63
2021/10/13 10:10:11;;;;;;;8.88;3.22;;;;;;;;;;5111139;27;20123;-64
2021/10/13 10:12:58;;;;;;;5.57;3.42;;;;;;;;;;5113073;27;20534;-64
2021/10/13 10:15:34;;;;;;;3.05;2.10;;;;;;;;;;5112066;27;20031;-64
2021/10/13 10:18:01;;;;;;;8.75;3.97;;;;;;;;;;5109994;27;20089;-64
2021/10/13 10:20:33;;;;;;;3.72;2.92;;;;;;;;;;5106307;27;20038;-64
2021/10/13 10:22:59;;;;;;;4.40;3.15;;;;;;;;;;5109517;27;20035;-64
2021/10/13 10:25:34;;;;;;;3.20;2.35;;;;;;;;;;5109694;27;20099;-64
2021/10/13 10:28:00;;;;;;;4.03;3.28;;;;;;;;;;5110944;27;20020;-65
2021/10/13 10:30:25;;;;;;;3.92;2.85;;;;;;;;;;5112894;27;20034;-64
2021/10/13 10:32:57;;;;;;;2.95;2.25;;;;;;;;;;5102664;27;20050;-63
2021/10/13 10:35:24;;;;;;;3.17;2.67;;;;;;;;;;5112103;27;20042;-64
2021/10/13 10:37:53;;;;;;;4.10;2.70;;;;;;;;;;5109969;27;20090;-64
2021/10/13 10:40:28;;;;;;;4.93;3.55;;;;;;;;;;5110160;27;20048;-64
2021/10/13 10:42:59;;;;;;;3.42;2.55;;;;;;;;;;5112422;27;20120;-65
2021/10/13 10:45:28;;;;;;;3.92;2.72;;;;;;;;;;5091066;28;20515;-65
2021/10/13 10:48:04;;;;;;;3.95;3.03;;;;;;;;;;5108214;27;20365;-65
2021/10/13 10:50:57;;;;;;;5.10;3.67;;;;;;;;;;5107869;27;20422;-64
2021/10/13 10:53:31;;;;;;;5.50;2.65;;;;;;;;;;5106837;27;20043;-64
2021/10/13 10:56:14;;;;;;;4.38;2.95;;;;;;;;;;5108345;27;20071;-64
2021/10/13 10:58:44;;;;;;;3.22;2.55;;;;;;;;;;5107996;27;20027;-63
2021/10/13 11:01:13;;;;;;;4.30;2.67;;;;;;;;;;5104736;27;20131;-63
2021/10/13 11:03:43;;;;;;;2.95;2.33;;;;;;;;;;5108218;27;20043;-63
2021/10/13 11:06:13;;;;;;;2.60;2.05;;;;;;;;;;5093104;27;20027;-64
2021/10/13 11:08:49;;;;;;;3.10;2.40;;;;;;;;;;5110652;27;20023;-63
2021/10/13 11:11:15;;;;;;;2.85;2.05;;;;;;;;;;5108737;27;20065;-63
2021/10/13 11:13:41;;;;;;;3.33;2.67;;;;;;;;;;5107306;27;20024;-61
2021/10/13 11:16:07;;;;;;;4.13;3.05;;;;;;;;;;5109955;27;20389;-62
2021/10/13 11:18:33;;;;;;;2.70;2.17;;;;;;;;;;5110821;27;20040;-62
2021/10/13 11:21:09;;;;;;;3.20;2.33;;;;;;;;;;5111724;27;20080;-62
2021/10/13 11:23:35;;;;;;;3.15;2.55;;;;;;;;;;5109144;27;20080;-62
2021/10/13 11:26:01;;;;;;;3.38;2.72;;;;;;;;;;5101751;27;20430;-61
2021/10/13 11:28:33;;;;;;;3.15;2.50;;;;;;;;;;5111078;27;20032;-61
2021/10/13 11:31:03;;;;;;;6.95;2.50;;;;;;;;;;5104342;27;20044;-61
2021/10/13 11:33:28;;;;;;;4.38;2.65;;;;;;;;;;5111672;27;20092;-61
2021/10/13 11:36:02;;;;;;;3.40;2.75;;;;;;;;;;5106117;28;20044;-61
2021/10/13 11:38:32;;;;;;;3.30;2.47;;;;;;;;;;5106838;27;20096;-61
2021/10/13 11:41:10;;;;;;;4.70;3.55;;;;;;;;;;5093290;28;20063;-62
2021/10/13 11:43:37;;;;;;;7.72;3.47;;;;;;;;;;5106325;27;20055;-61
2021/10/13 11:46:04;;;;;;;3.30;2.67;;;;;;;;;;5109107;27;20046;-61
2021/10/13 11:48:32;;;;;;;3.58;2.78;;;;;;;;;;5106223;27;20020;-61
2021/10/13 11:51:00;;;;;;;2.95;2.40;;;;;;;;;;5108736;27;20028;-61
2021/10/13 11:53:27;;;;;;;3.40;2.83;;;;;;;;;;5110683;27;20032;-60
2021/10/13 11:55:52;;;;;;;3.53;2.40;;;;;;;;;;5092918;28;20175;-60
2021/10/13 11:58:26;;;;;;;5.55;3.22;;;;;;;;;;5072829;28;20147;-60
2021/10/13 12:00:52;;;;;;;3.90;2.47;;;;;;;;;;5105117;27;20813;-61
2021/10/13 12:03:17;;;;;;;4.15;3.00;;;;;;;;;;5106263;28;20031;-61
2021/10/13 12:05:53;;;;;;;3.88;2.70;;;;;;;;;;5103797;28;20042;-61
2021/10/13 12:08:33;;;;;;;3.88;2.83;;;;;;;;;;5108442;28;20114;-61
2021/10/13 12:11:35;;;;;;;3.33;2.53;;;;;;;;;;5109157;28;20441;-61
2021/10/13 12:14:10;;;;;;;3.17;2.33;;;;;;;;;;5099942;28;20072;-61
2021/10/13 12:16:36;;;;;;;2.60;2.10;;;;;;;;;;5111861;28;20082;-61
2021/10/13 12:19:11;;;;;;;3.03;2.10;;;;;;;;;;5103392;28;20059;-62
2021/10/13 12:21:37;;;;;;;5.57;2.80;;;;;;;;;;5108131;28;20546;-62
2021/10/13 12:24:07;;;;;;;3.17;2.33;;;;;;;;;;5110701;28;20036;-62
2021/10/13 12:26:44;;;;;;;3.30;2.90;;;;;;;;;;5107796;28;20040;-62
2021/10/13 12:29:12;;;;;;;4.40;2.58;;;;;;;;;;5105996;28;20529;-62
2021/10/13 12:31:38;;;;;;;2.50;1.92;;;;;;;;;;5095073;28;20032;-61
2021/10/13 12:34:07;;;;;;;3.58;2.60;;;;;;;;;;5107573;28;20038;-61
2021/10/13 12:36:33;;;;;;;3.45;2.53;;;;;;;;;;5107617;28;20047;-61
2021/10/13 12:39:10;;;;;;;2.95;2.20;;;;;;;;;;5107688;28;20028;-61
2021/10/13 12:41:38;;;;;;;3.25;2.40;;;;;;;;;;5106648;28;20617;-61
2021/10/13 12:44:15;;;;;;;2.92;1.92;;;;;;;;;;5105272;28;20396;-61
2021/10/13 12:46:51;;;;;;;2.85;2.10;;;;;;;;;;5107156;28;20023;-62
2021/10/13 12:49:18;;;;;;;3.10;1.92;;;;;;;;;;5108871;27;20411;-62
2021/10/13 12:51:58;;;;;;;3.13;1.90;;;;;;;;;;5095474;28;20076;-61
2021/10/13 12:54:32;;;;;;;2.90;2.30;;;;;;;;;;5089125;28;20454;-61
2021/10/13 12:56:58;;;;;;;2.17;1.52;;;;;;;;;;5112527;27;20498;-61
2021/10/13 12:59:24;;;;;;;4.00;2.40;;;;;;;;;;5113675;27;20028;-61
2021/10/13 13:01:51;;;;;;;3.05;2.28;;;;;;;;;;5106137;27;20065;-61
2021/10/13 13:04:17;;;;;;;2.75;1.75;;;;;;;;;;5113545;27;20074;-61
2021/10/13 13:06:42;;;;;;;2.78;2.00;;;;;;;;;;5111761;27;20465;-63
2021/10/13 13:09:08;;;;;;;2.90;2.13;;;;;;;;;;5111723;27;20046;-61
2021/10/13 13:11:33;;;;;;;2.50;1.70;;;;;;;;;;5113921;27;20027;-61
2021/10/13 13:13:59;;;;;;;2.58;2.00;;;;;;;;;;5112485;27;20472;-61
2021/10/13 13:16:26;;;;;;;2.95;2.15;;;;;;;;;;5112257;27;20449;-61
2021/10/13 13:18:53;;;;;;;3.75;2.35;;;;;;;;;;5111314;27;20032;-61
2021/10/13 13:21:18;;;;;;;2.63;2.05;;;;;;;;;;5107869;27;20027;-61
2021/10/13 13:23:44;;;;;;;3.40;2.72;;;;;;;;;;5108021;27;20081;-61
2021/10/13 13:26:10;;;;;;;4.72;2.50;;;;;;;;;;5110839;27;20096;-61
2021/10/13 13:28:37;;;;;;;2.75;2.33;;;;;;;;;;5110390;27;20106;-61
2021/10/13 13:31:02;;;;;;;3.28;2.30;;;;;;;;;;5077014;27;20040;-61
2021/10/13 13:33:28;;;;;;;3.95;2.20;;;;;;;;;;5111750;27;20035;-61
2021/10/13 13:35:53;;;;;;;2.65;2.13;;;;;;;;;;5109054;27;20145;-62
2021/10/13 13:38:18;;;;;;;3.00;2.20;;;;;;;;;;5111527;27;20353;-61
2021/10/13 13:40:44;;;;;;;5.45;2.58;;;;;;;;;;5116392;27;20043;-61
2021/10/13 13:43:09;;;;;;;11.82;2.50;;;;;;;;;;5111487;27;20084;-61
2021/10/13 13:45:35;;;;;;;4.65;2.58;;;;;;;;;;5104553;27;20031;-61
2021/10/13 13:48:01;;;;;;;2.92;2.15;;;;;;;;;;5111558;27;20020;-61
2021/10/13 13:50:28;;;;;;;3.13;2.20;;;;;;;;;;5114348;27;20042;-60
2021/10/13 13:52:54;;;;;;;2.97;2.22;;;;;;;;;;5109435;27;20377;-60
2021/10/13 13:55:20;;;;;;;2.78;2.08;;;;;;;;;;5111545;27;20042;-61
2021/10/13 13:57:45;;;;;;;3.58;2.53;;;;;;;;;;5107855;27;20034;-61
2021/10/13 14:00:11;;;;;;;3.70;2.58;;;;;;;;;;5107179;27;20187;-61
2021/10/13 14:02:36;;;;;;;3.15;2.38;;;;;;;;;;5107262;27;20035;-63
2021/10/13 14:05:02;;;;;;;3.30;2.70;;;;;;;;;;5092097;28;20067;-62
2021/10/13 14:07:30;;;;;;;3.72;2.67;;;;;;;;;;5099288;28;20119;-62
2021/10/13 14:09:56;;;;;;;2.63;1.88;;;;;;;;;;5108510;27;20042;-61
2021/10/13 14:12:21;;;;;;;3.33;2.30;;;;;;;;;;5106166;27;20346;-61
2021/10/13 14:14:47;;;;;;;3.83;2.90;;;;;;;;;;5112428;27;20035;-61
2021/10/13 14:17:12;;;;;;;2.63;2.08;;;;;;;;;;5113260;27;20035;-61
2021/10/13 14:19:38;;;;;;;2.63;2.08;;;;;;;;;;5109991;27;20031;-62
2021/10/13 14:22:03;;;;;;;3.10;2.25;;;;;;;;;;5111948;27;20446;-61
2021/10/13 14:24:28;;;;;;;4.55;2.40;;;;;;;;;;5108183;27;20160;-61
2021/10/13 14:26:58;;;;;;;2.97;2.17;;;;;;;;;;5111125;27;20127;-61
2021/10/13 14:29:25;;;;;;;4.93;2.60;;;;;;;;;;5107783;27;20043;-62
2021/10/13 14:31:50;;;;;;;3.75;2.60;;;;;;;;;;5109817;27;20356;-62
2021/10/13 14:34:16;;;;;;;4.07;3.03;;;;;;;;;;5113131;27;20020;-61
2021/10/13 14:36:42;;;;;;;3.90;2.20;;;;;;;;;;5106319;27;20383;-61
2021/10/13 14:39:07;;;;;;;6.65;3.08;;;;;;;;;;5110868;27;20128;-61
2021/10/13 14:41:33;;;;;;;3.30;2.70;;;;;;;;;;5110397;27;20132;-61
2021/10/13 14:43:59;;;;;;;4.30;2.72;;;;;;;;;;5111620;27;20379;-61
2021/10/13 14:46:24;;;;;;;4.57;3.08;;;;;;;;;;5112529;27;20042;-61
2021/10/13 14:48:50;;;;;;;3.83;3.30;;;;;;;;;;5109984;27;20024;-61